createdAt,value
2019-01-10T00:00:21.864Z,6.63
2019-01-10T00:02:50.395Z,8.50
2019-01-10T00:05:18.724Z,6.80
2019-01-10T00:07:47.322Z,9.17
2019-01-10T00:10:16.820Z,7.00
2019-01-10T00:12:45.404Z,7.30
2019-01-10T00:15:16.648Z,8.03
2019-01-10T00:17:45.248Z,7.83
2019-01-10T00:20:14.559Z,8.03
2019-01-10T00:22:43.087Z,8.33
2019-01-10T00:25:12.654Z,8.83
2019-01-10T00:27:41.238Z,10.43
2019-01-10T00:30:12.715Z,8.10
2019-01-10T00:32:41.333Z,7.20
2019-01-10T00:35:10.293Z,7.90
2019-01-10T00:37:38.625Z,8.00
2019-01-10T00:40:09.924Z,7.13
2019-01-10T00:42:38.191Z,7.57
2019-01-10T00:45:09.295Z,7.37
2019-01-10T00:47:37.579Z,8.77
2019-01-10T00:50:09.315Z,7.90
2019-01-10T00:52:37.608Z,7.70
2019-01-10T00:55:07.008Z,8.50
2019-01-10T00:57:35.318Z,8.03
2019-01-10T01:00:06.073Z,7.57
2019-01-10T01:02:34.336Z,8.20
2019-01-10T01:05:02.709Z,7.27
2019-01-10T01:07:31.047Z,7.30
2019-01-10T01:09:59.317Z,7.40
2019-01-10T01:12:27.666Z,7.57
2019-01-10T01:14:55.941Z,7.60
2019-01-10T01:17:24.294Z,7.80
2019-01-10T01:19:52.529Z,7.17
2019-01-10T01:22:20.783Z,7.37
2019-01-10T01:24:49.051Z,7.00
2019-01-10T01:27:17.275Z,8.43
2019-01-10T01:29:45.534Z,7.20
2019-01-10T01:32:13.876Z,7.27
2019-01-10T01:34:42.082Z,6.37
2019-01-10T01:37:10.427Z,6.97
2019-01-10T01:39:38.656Z,6.47
2019-01-10T01:42:06.995Z,6.23
2019-01-10T01:44:35.325Z,7.40
2019-01-10T01:47:03.628Z,7.17
2019-01-10T01:49:31.949Z,7.30
2019-01-10T01:52:00.243Z,7.37
2019-01-10T01:54:28.516Z,6.90
2019-01-10T01:56:56.799Z,6.97
2019-01-10T01:59:25.111Z,6.27
2019-01-10T02:01:53.375Z,6.77
2019-01-10T02:04:21.713Z,6.90
2019-01-10T02:06:50.055Z,7.17
2019-01-10T02:09:18.270Z,7.47
2019-01-10T02:11:46.586Z,6.30
2019-01-10T02:14:14.816Z,6.33
2019-01-10T02:16:43.122Z,7.13
2019-01-10T02:19:11.419Z,7.10
2019-01-10T02:21:39.689Z,6.07
2019-01-10T02:24:07.982Z,7.10
2019-01-10T02:26:36.319Z,5.87
2019-01-10T02:29:04.550Z,6.57
2019-01-10T02:31:32.917Z,7.07
2019-01-10T02:34:01.183Z,6.63
2019-01-10T02:36:29.466Z,6.43
2019-01-10T02:38:57.708Z,6.20
2019-01-10T02:41:25.938Z,6.47
2019-01-10T02:43:54.218Z,6.90
2019-01-10T02:46:22.483Z,6.40
2019-01-10T02:48:50.945Z,6.40
2019-01-10T02:51:19.303Z,6.33
2019-01-10T02:53:47.544Z,6.23
2019-01-10T02:56:15.812Z,5.90
2019-01-10T02:58:44.057Z,6.23
2019-01-10T03:01:12.303Z,6.70
2019-01-10T03:03:40.565Z,5.90
2019-01-10T03:06:08.805Z,6.47
2019-01-10T03:08:37.086Z,6.70
2019-01-10T03:11:05.339Z,6.17
2019-01-10T03:13:36.841Z,6.07
2019-01-10T03:16:03.658Z,5.60
2019-01-10T03:18:31.917Z,5.80
2019-01-10T03:21:00.153Z,7.33
2019-01-10T03:23:28.409Z,6.53
2019-01-10T03:25:56.729Z,6.00
2019-01-10T03:28:24.955Z,5.70
2019-01-10T03:30:53.239Z,5.87
2019-01-10T03:33:21.489Z,6.03
2019-01-10T03:35:49.818Z,6.10
2019-01-10T03:38:18.088Z,5.90
2019-01-10T03:40:46.406Z,5.13
2019-01-10T03:43:14.693Z,6.30
2019-01-10T03:45:43.031Z,6.27
2019-01-10T03:48:11.258Z,5.80
2019-01-10T03:50:39.510Z,6.13
2019-01-10T03:53:07.786Z,6.77
2019-01-10T03:55:36.062Z,5.53
2019-01-10T03:58:04.407Z,7.43
2019-01-10T04:00:32.671Z,6.40
2019-01-10T04:03:00.942Z,5.90
2019-01-10T04:05:29.183Z,5.67
2019-01-10T04:07:57.583Z,6.30
2019-01-10T04:10:28.654Z,6.80
2019-01-10T04:12:56.970Z,6.17
2019-01-10T04:15:25.303Z,5.93
2019-01-10T04:17:53.539Z,7.17
2019-01-10T04:20:21.837Z,6.73
2019-01-10T04:22:50.237Z,6.73
2019-01-10T04:25:18.636Z,5.97
2019-01-10T04:27:46.941Z,6.43
2019-01-10T04:30:17.776Z,6.20
2019-01-10T04:32:46.042Z,6.17
2019-01-10T04:35:14.308Z,6.73
2019-01-10T04:37:42.536Z,6.47
2019-01-10T04:40:16.352Z,5.87
2019-01-10T04:42:44.736Z,6.77
2019-01-10T04:45:13.452Z,6.13
2019-01-10T04:47:41.881Z,6.10
2019-01-10T04:50:12.362Z,7.10
2019-01-10T04:52:40.618Z,6.43
2019-01-10T04:55:10.184Z,6.97
2019-01-10T04:57:38.537Z,6.90
2019-01-10T05:00:16.072Z,6.30
2019-01-10T05:02:44.609Z,6.47
2019-01-10T05:05:12.901Z,6.27
2019-01-10T05:07:41.320Z,6.57
2019-01-10T05:10:10.900Z,5.67
2019-01-10T05:12:41.645Z,6.27
2019-01-10T05:15:12.688Z,6.70
2019-01-10T05:17:41.100Z,6.07
2019-01-10T05:20:13.376Z,6.60
2019-01-10T05:22:41.655Z,6.60
2019-01-10T05:25:10.159Z,6.70
2019-01-10T05:27:38.747Z,7.03
2019-01-10T05:30:10.402Z,6.57
2019-01-10T05:32:38.744Z,7.50
2019-01-10T05:35:07.191Z,5.73
2019-01-10T05:37:35.770Z,6.03
2019-01-10T05:40:06.038Z,6.00
2019-01-10T05:42:34.544Z,6.30
2019-01-10T05:45:11.841Z,6.53
2019-01-10T05:47:42.820Z,5.60
2019-01-10T05:50:12.797Z,5.93
2019-01-10T05:52:41.250Z,5.83
2019-01-10T05:55:12.091Z,7.03
2019-01-10T05:57:40.626Z,6.30
2019-01-10T06:00:15.185Z,5.93
2019-01-10T06:02:43.559Z,5.60
2019-01-10T06:05:11.925Z,6.17
2019-01-10T06:07:41.931Z,5.73
2019-01-10T06:10:16.295Z,6.13
2019-01-10T06:12:44.669Z,6.10
2019-01-10T06:15:15.078Z,5.90
2019-01-10T06:17:43.398Z,6.50
2019-01-10T06:20:14.973Z,6.37
2019-01-10T06:22:43.291Z,6.60
2019-01-10T06:25:11.756Z,6.97
2019-01-10T06:27:40.009Z,6.27
2019-01-10T06:30:11.646Z,6.47
2019-01-10T06:32:39.979Z,6.60
2019-01-10T06:35:08.297Z,7.23
2019-01-10T06:37:36.727Z,6.73
2019-01-10T06:40:07.539Z,6.70
2019-01-10T06:42:35.784Z,6.67
2019-01-10T06:45:05.179Z,6.70
2019-01-10T06:47:33.592Z,6.33
2019-01-10T06:50:01.844Z,6.20
2019-01-10T06:52:30.125Z,6.87
2019-01-10T06:54:58.442Z,6.83
2019-01-10T06:57:27.444Z,6.50
2019-01-10T06:59:55.802Z,6.87
2019-01-10T07:02:24.207Z,6.70
2019-01-10T07:04:52.619Z,7.40
2019-01-10T07:07:20.888Z,7.27
2019-01-10T07:09:49.198Z,6.97
2019-01-10T07:12:17.542Z,7.60
2019-01-10T07:14:53.525Z,7.00
2019-01-10T07:17:16.007Z,6.57
2019-01-10T07:19:44.695Z,6.87
2019-01-10T07:22:14.083Z,7.63
2019-01-10T07:24:50.674Z,6.40
2019-01-10T07:27:18.915Z,6.57
2019-01-10T07:29:49.891Z,8.30
2019-01-10T07:32:18.136Z,8.40
2019-01-10T07:34:46.380Z,7.30
2019-01-10T07:37:14.639Z,6.83
2019-01-10T07:39:42.893Z,6.37
2019-01-10T07:42:11.129Z,7.93
2019-01-10T07:44:39.374Z,10.77
2019-01-10T07:47:08.305Z,11.27
2019-01-10T07:49:36.568Z,11.13
2019-01-10T07:52:04.807Z,8.93
2019-01-10T07:54:33.036Z,7.00
2019-01-10T07:57:01.276Z,9.27
2019-01-10T07:59:29.520Z,7.97
2019-01-10T08:01:57.780Z,6.93
2019-01-10T08:04:26.049Z,10.80
2019-01-10T08:06:54.308Z,10.50
2019-01-10T08:09:22.539Z,9.10
2019-01-10T08:12:00.095Z,10.27
2019-01-10T08:14:20.774Z,7.90
2019-01-10T08:16:49.010Z,7.93
2019-01-10T08:19:17.251Z,8.17
2019-01-10T08:21:46.644Z,7.90
2019-01-10T08:24:15.008Z,6.93
2019-01-10T08:26:43.271Z,8.67
2019-01-10T08:29:11.510Z,8.47
2019-01-10T08:31:39.754Z,6.60
2019-01-10T08:34:07.981Z,7.00
2019-01-10T08:36:36.214Z,6.33
2019-01-10T08:39:07.085Z,6.67
2019-01-10T08:41:35.325Z,5.80
2019-01-10T08:44:03.569Z,7.83
2019-01-10T08:46:31.825Z,6.83
2019-01-10T08:49:00.060Z,7.60
2019-01-10T08:51:28.335Z,7.30
2019-01-10T08:53:56.576Z,8.03
2019-01-10T08:56:24.810Z,6.90
2019-01-10T08:58:53.051Z,6.70
2019-01-10T09:01:21.287Z,8.50
2019-01-10T09:03:49.578Z,6.07
2019-01-10T09:06:17.830Z,5.53
2019-01-10T09:08:46.057Z,6.23
2019-01-10T09:11:14.294Z,6.50
2019-01-10T09:13:42.607Z,6.10
2019-01-10T09:16:10.843Z,5.73
2019-01-10T09:18:39.079Z,6.57
2019-01-10T09:21:07.374Z,6.03
2019-01-10T09:23:35.616Z,5.83
2019-01-10T09:26:03.851Z,6.53
2019-01-10T09:28:32.117Z,6.37
2019-01-10T09:31:00.361Z,5.87
2019-01-10T09:33:28.864Z,5.87
2019-01-10T09:35:57.102Z,6.13
2019-01-10T09:38:25.340Z,6.00
2019-01-10T09:40:53.613Z,6.27
2019-01-10T09:43:21.925Z,5.97
2019-01-10T09:45:50.157Z,5.53
2019-01-10T09:48:18.402Z,5.87
2019-01-10T09:50:46.635Z,7.40
2019-01-10T09:53:14.903Z,9.37
2019-01-10T09:55:43.146Z,6.50
2019-01-10T09:58:11.380Z,6.00
2019-01-10T10:00:39.625Z,7.00
2019-01-10T10:03:07.859Z,7.53
2019-01-10T10:05:36.118Z,7.63
2019-01-10T10:08:04.429Z,6.77
2019-01-10T10:10:32.678Z,5.97
2019-01-10T10:13:00.915Z,5.63
2019-01-10T10:15:29.152Z,4.97
2019-01-10T10:17:57.417Z,5.37
2019-01-10T10:20:27.533Z,8.10
2019-01-10T10:22:55.783Z,5.23
2019-01-10T10:25:26.009Z,6.00
2019-01-10T10:27:53.994Z,6.23
2019-01-10T10:30:22.323Z,5.93
2019-01-10T10:32:50.595Z,5.63
2019-01-10T10:35:19.113Z,6.20
2019-01-10T10:37:47.379Z,6.97
2019-01-10T10:40:17.557Z,5.87
2019-01-10T10:42:46.247Z,5.23
2019-01-10T10:45:16.977Z,5.97
2019-01-10T10:47:45.217Z,6.33
2019-01-10T10:50:15.826Z,6.63
2019-01-10T10:52:44.185Z,6.30
2019-01-10T10:55:12.573Z,6.20
2019-01-10T10:57:40.884Z,7.10
2019-01-10T11:00:18.542Z,5.90
2019-01-10T11:02:46.879Z,5.17
2019-01-10T11:05:15.172Z,6.20
2019-01-10T11:07:45.856Z,5.93
2019-01-10T11:10:17.423Z,5.30
2019-01-10T11:12:45.779Z,5.73
2019-01-10T11:15:14.180Z,11.90
2019-01-10T11:17:42.447Z,5.13
2019-01-10T11:20:15.888Z,5.17
2019-01-10T11:22:44.209Z,5.87
2019-01-10T11:25:14.906Z,6.23
2019-01-10T11:27:43.266Z,5.43
2019-01-10T11:30:14.632Z,5.20
2019-01-10T11:32:42.900Z,5.50
2019-01-10T11:35:11.205Z,5.73
2019-01-10T11:37:39.452Z,5.20
2019-01-10T11:40:13.889Z,5.30
2019-01-10T11:42:42.260Z,4.90
2019-01-10T11:45:13.407Z,6.10
2019-01-10T11:47:41.739Z,4.80
2019-01-10T11:50:12.814Z,6.40
2019-01-10T11:52:41.087Z,5.60
2019-01-10T11:55:09.788Z,5.30
2019-01-10T11:57:38.149Z,5.27
2019-01-10T12:00:20.882Z,6.60
2019-01-10T12:02:49.138Z,5.37
2019-01-10T12:05:17.374Z,5.40
2019-01-10T12:07:45.650Z,5.67
2019-01-10T12:10:14.015Z,5.30
2019-01-10T12:12:42.294Z,5.20
2019-01-10T12:15:11.701Z,5.43
2019-01-10T12:17:40.030Z,5.30
2019-01-10T12:20:16.520Z,5.53
2019-01-10T12:22:45.067Z,5.37
2019-01-10T12:25:15.293Z,4.53
2019-01-10T12:27:43.545Z,5.57
2019-01-10T12:30:17.213Z,5.50
2019-01-10T12:32:45.520Z,5.03
2019-01-10T12:35:13.783Z,5.43
2019-01-10T12:37:42.111Z,5.60
2019-01-10T12:40:12.604Z,5.73
2019-01-10T12:42:40.853Z,5.40
2019-01-10T12:45:14.299Z,5.17
2019-01-10T12:47:42.543Z,5.50
2019-01-10T12:50:16.904Z,5.23
2019-01-10T12:52:45.149Z,5.50
2019-01-10T12:55:13.402Z,5.80
2019-01-10T12:57:41.637Z,6.00
2019-01-10T13:00:13.204Z,5.90
2019-01-10T13:02:41.437Z,6.63
2019-01-10T13:05:09.731Z,6.10
2019-01-10T13:07:37.975Z,5.40
2019-01-10T13:10:09.523Z,5.60
2019-01-10T13:12:37.787Z,6.00
2019-01-10T13:15:09.450Z,5.97
2019-01-10T13:17:37.695Z,5.40
2019-01-10T13:20:08.595Z,5.50
2019-01-10T13:22:36.829Z,6.30
2019-01-10T13:25:14.122Z,6.60
2019-01-10T13:27:42.405Z,7.73
2019-01-10T13:30:17.048Z,7.03
2019-01-10T13:32:45.292Z,5.63
2019-01-10T13:35:13.620Z,7.27
2019-01-10T13:37:41.853Z,7.70
2019-01-10T13:40:11.435Z,7.30
2019-01-10T13:42:39.669Z,5.53
2019-01-10T13:45:10.328Z,5.90
2019-01-10T13:47:38.661Z,5.97
2019-01-10T13:50:13.315Z,6.50
2019-01-10T13:52:41.560Z,7.23
2019-01-10T13:55:11.455Z,6.80
2019-01-10T13:57:40.044Z,8.30
2019-01-10T14:00:27.636Z,6.47
2019-01-10T14:02:55.884Z,5.97
2019-01-10T14:05:24.171Z,6.20
2019-01-10T14:07:52.469Z,5.53
2019-01-10T14:10:20.763Z,6.43
2019-01-10T14:12:49.008Z,6.83
2019-01-10T14:15:25.600Z,7.27
2019-01-10T14:17:53.833Z,5.70
2019-01-10T14:20:22.076Z,6.03
2019-01-10T14:22:50.321Z,6.63
2019-01-10T14:25:18.553Z,6.13
2019-01-10T14:27:46.815Z,6.00
2019-01-10T14:30:23.096Z,7.03
2019-01-10T14:32:51.331Z,5.67
2019-01-10T14:35:19.671Z,6.43
2019-01-10T14:37:48.171Z,6.70
2019-01-10T14:40:16.481Z,5.97
2019-01-10T14:42:44.726Z,6.63
2019-01-10T14:45:15.398Z,7.47
2019-01-10T14:47:43.662Z,7.07
2019-01-10T14:50:12.433Z,7.23
2019-01-10T14:52:40.672Z,6.97
2019-01-10T14:55:11.551Z,7.73
2019-01-10T14:57:39.787Z,6.63
2019-01-10T15:00:22.438Z,6.63
2019-01-10T15:02:50.671Z,6.43
2019-01-10T15:05:20.450Z,6.90
2019-01-10T15:07:49.823Z,6.17
2019-01-10T15:10:18.124Z,6.30
2019-01-10T15:12:46.816Z,6.73
2019-01-10T15:15:19.803Z,6.80
2019-01-10T15:17:48.047Z,6.30
2019-01-10T15:20:18.813Z,6.87
2019-01-10T15:22:47.058Z,6.53
2019-01-10T15:25:15.333Z,9.50
2019-01-10T15:27:43.563Z,6.40
2019-01-10T15:30:15.105Z,6.40
2019-01-10T15:32:43.370Z,7.07
2019-01-10T15:35:11.607Z,8.17
2019-01-10T15:37:39.848Z,7.27
2019-01-10T15:40:14.644Z,7.90
2019-01-10T15:42:42.908Z,7.43
2019-01-10T15:45:11.247Z,8.67
2019-01-10T15:47:39.477Z,7.43
2019-01-10T15:50:13.849Z,7.17
2019-01-10T15:52:42.088Z,7.10
2019-01-10T15:55:11.662Z,8.03
2019-01-10T15:57:39.942Z,8.37
2019-01-10T16:00:14.008Z,6.80
2019-01-10T16:02:42.259Z,11.37
2019-01-10T16:05:10.498Z,8.80
2019-01-10T16:07:38.735Z,7.57
2019-01-10T16:10:10.203Z,7.87
2019-01-10T16:12:38.438Z,7.50
2019-01-10T16:15:10.171Z,7.57
2019-01-10T16:17:38.412Z,8.37
2019-01-10T16:20:09.646Z,7.70
2019-01-10T16:22:37.913Z,7.83
2019-01-10T16:25:08.697Z,9.03
2019-01-10T16:27:36.933Z,11.73
2019-01-10T16:30:19.959Z,8.90
2019-01-10T16:32:48.191Z,9.03
2019-01-10T16:35:16.454Z,8.80
2019-01-10T16:37:44.700Z,9.30
2019-01-10T16:40:14.862Z,8.10
2019-01-10T16:42:43.120Z,11.10
2019-01-10T16:45:22.516Z,8.30
2019-01-10T16:47:50.752Z,8.33
2019-01-10T16:50:18.993Z,8.53
2019-01-10T16:52:47.224Z,8.43
2019-01-10T16:55:15.458Z,8.23
2019-01-10T16:57:43.703Z,9.00
2019-01-10T17:00:15.194Z,9.00
2019-01-10T17:02:43.459Z,8.87
2019-01-10T17:05:11.700Z,7.93
2019-01-10T17:07:39.938Z,10.80
2019-01-10T17:10:10.529Z,11.37
2019-01-10T17:12:38.761Z,8.87
2019-01-10T17:15:09.934Z,9.80
2019-01-10T17:17:38.185Z,10.20
2019-01-10T17:20:18.203Z,10.37
2019-01-10T17:22:46.470Z,13.10
2019-01-10T17:25:14.786Z,9.00
2019-01-10T17:27:43.044Z,13.30
2019-01-10T17:30:17.521Z,9.77
2019-01-10T17:32:45.758Z,9.30
2019-01-10T17:35:17.239Z,10.17
2019-01-10T17:37:45.479Z,9.03
2019-01-10T17:40:16.880Z,8.97
2019-01-10T17:42:45.486Z,9.40
2019-01-10T17:45:16.834Z,8.00
2019-01-10T17:47:45.687Z,10.63
2019-01-10T17:50:16.261Z,10.20
2019-01-10T17:52:44.489Z,7.67
2019-01-10T17:55:12.727Z,7.30
2019-01-10T17:57:40.965Z,8.93
2019-01-10T18:00:15.365Z,8.33
2019-01-10T18:02:43.606Z,9.40
2019-01-10T18:05:11.851Z,8.80
2019-01-10T18:07:40.089Z,11.03
2019-01-10T18:10:13.901Z,8.67
2019-01-10T18:12:42.212Z,10.10
2019-01-10T18:15:12.489Z,9.50
2019-01-10T18:17:40.762Z,10.27
2019-01-10T18:20:18.246Z,9.60
2019-01-10T18:22:46.522Z,9.13
2019-01-10T18:25:14.935Z,9.43
2019-01-10T18:27:43.169Z,9.03
2019-01-10T18:30:17.572Z,8.87
2019-01-10T18:32:45.833Z,9.13
2019-01-10T18:35:14.243Z,8.70
2019-01-10T18:37:42.485Z,8.10
2019-01-10T18:40:13.163Z,8.47
2019-01-10T18:42:41.399Z,7.07
2019-01-10T18:45:12.871Z,8.10
2019-01-10T18:47:41.109Z,7.73
2019-01-10T18:50:15.050Z,8.10
2019-01-10T18:52:43.288Z,7.83
2019-01-10T18:55:11.532Z,10.97
2019-01-10T18:57:39.802Z,6.67
2019-01-10T19:00:17.340Z,8.23
2019-01-10T19:02:45.603Z,7.97
2019-01-10T19:05:13.913Z,6.03
2019-01-10T19:07:42.140Z,6.07
2019-01-10T19:10:13.631Z,6.10
2019-01-10T19:12:41.874Z,9.27
2019-01-10T19:15:10.129Z,9.47
2019-01-10T19:17:38.371Z,7.77
2019-01-10T19:20:18.457Z,7.40
2019-01-10T19:22:46.701Z,6.10
2019-01-10T19:25:14.940Z,7.27
2019-01-10T19:27:43.181Z,8.07
2019-01-10T19:30:20.514Z,9.30
2019-01-10T19:32:48.765Z,7.20
2019-01-10T19:35:17.000Z,7.50
2019-01-10T19:37:45.244Z,8.03
2019-01-10T19:40:19.456Z,7.63
2019-01-10T19:42:47.690Z,7.57
2019-01-10T19:45:18.198Z,8.27
2019-01-10T19:47:46.430Z,8.60
2019-01-10T19:50:17.891Z,6.80
2019-01-10T19:52:46.126Z,7.73
2019-01-10T19:55:16.029Z,7.13
2019-01-10T19:57:44.274Z,7.40
2019-01-10T20:00:24.965Z,7.03
2019-01-10T20:02:53.233Z,8.07
2019-01-10T20:05:21.552Z,7.40
2019-01-10T20:07:49.794Z,8.47
2019-01-10T20:10:18.122Z,8.70
2019-01-10T20:12:46.421Z,7.40
2019-01-10T20:15:14.697Z,7.63
2019-01-10T20:17:42.943Z,7.27
2019-01-10T20:20:26.237Z,7.73
2019-01-10T20:22:54.555Z,8.53
2019-01-10T20:25:23.360Z,7.67
2019-01-10T20:27:51.613Z,8.03
2019-01-10T20:30:19.922Z,9.17
2019-01-10T20:32:48.190Z,7.80
2019-01-10T20:35:16.849Z,7.77
2019-01-10T20:37:45.089Z,6.87
2019-01-10T20:40:15.771Z,8.40
2019-01-10T20:42:44.012Z,8.63
2019-01-10T20:45:12.253Z,8.13
2019-01-10T20:47:40.525Z,8.37
2019-01-10T20:50:14.885Z,7.73
2019-01-10T20:52:43.131Z,8.93
2019-01-10T20:55:16.058Z,8.20
2019-01-10T20:57:44.321Z,10.40
2019-01-10T21:00:18.533Z,9.10
2019-01-10T21:02:46.778Z,10.63
2019-01-10T21:05:15.012Z,9.80
2019-01-10T21:07:44.897Z,9.27
2019-01-10T21:10:15.539Z,8.50
2019-01-10T21:12:43.953Z,11.83
2019-01-10T21:15:18.104Z,10.13
2019-01-10T21:17:46.364Z,9.53
2019-01-10T21:20:14.618Z,10.20
2019-01-10T21:22:42.861Z,10.03
2019-01-10T21:25:12.006Z,8.60
2019-01-10T21:27:40.454Z,10.40
2019-01-10T21:30:11.809Z,9.10
2019-01-10T21:32:40.923Z,8.77
2019-01-10T21:35:09.415Z,9.33
2019-01-10T21:37:37.655Z,9.90
2019-01-10T21:40:11.417Z,16.10
2019-01-10T21:42:39.659Z,10.53
2019-01-10T21:45:14.050Z,13.07
2019-01-10T21:47:42.480Z,17.13
2019-01-10T21:50:14.218Z,8.97
2019-01-10T21:52:42.496Z,10.90
2019-01-10T21:55:11.212Z,11.40
2019-01-10T21:57:39.448Z,8.70
2019-01-10T22:00:10.960Z,10.80
2019-01-10T22:02:40.471Z,7.30
2019-01-10T22:05:08.739Z,9.70
2019-01-10T22:07:36.989Z,8.40
2019-01-10T22:10:08.256Z,12.43
2019-01-10T22:12:36.542Z,9.20
2019-01-10T22:15:07.626Z,8.10
2019-01-10T22:17:35.869Z,8.40
2019-01-10T22:20:07.157Z,11.63
2019-01-10T22:22:35.423Z,7.90
2019-01-10T22:25:03.662Z,8.50
2019-01-10T22:27:31.908Z,8.23
2019-01-10T22:30:00.619Z,7.57
2019-01-10T22:32:28.858Z,7.80
2019-01-10T22:34:57.127Z,8.10
2019-01-10T22:37:28.966Z,8.33
2019-01-10T22:39:55.396Z,8.13
2019-01-10T22:42:23.633Z,6.80
2019-01-10T22:44:51.871Z,8.23
2019-01-10T22:47:20.136Z,7.33
2019-01-10T22:49:48.373Z,7.00
2019-01-10T22:52:16.642Z,8.63
2019-01-10T22:54:44.888Z,7.10
2019-01-10T22:57:13.129Z,8.90
2019-01-10T22:59:41.380Z,7.10
2019-01-10T23:02:10.387Z,7.03
2019-01-10T23:04:38.807Z,7.90
2019-01-10T23:07:11.989Z,7.73
2019-01-10T23:09:40.229Z,7.70
2019-01-10T23:12:08.664Z,7.80
2019-01-10T23:14:36.909Z,7.30
2019-01-10T23:17:06.316Z,8.87
2019-01-10T23:19:34.633Z,7.37
2019-01-10T23:22:13.615Z,6.93
2019-01-10T23:24:41.857Z,7.17
2019-01-10T23:27:10.099Z,8.00
2019-01-10T23:29:38.375Z,6.60
2019-01-10T23:32:09.385Z,10.50
2019-01-10T23:34:37.630Z,6.50
2019-01-10T23:37:05.869Z,8.17
2019-01-10T23:39:34.118Z,7.10
2019-01-10T23:42:02.355Z,8.90
2019-01-10T23:44:30.594Z,7.43
2019-01-10T23:46:58.869Z,8.13
2019-01-10T23:49:27.105Z,8.20
2019-01-10T23:51:55.353Z,7.27
2019-01-10T23:54:23.603Z,8.47
2019-01-10T23:56:51.839Z,8.10
2019-01-10T23:59:20.114Z,7.67
